sensor_id;sensor_type;location;lat;lon;timestamp;temperature;humidity
28654;DHT22;24320;56.980;24.336;2023-05-01T00:02:22;0.10;99.90
28654;DHT22;24320;56.980;24.336;2023-05-01T00:04:49;0.00;99.90
28654;DHT22;24320;56.980;24.336;2023-05-01T00:07:16;-0.10;99.90
28654;DHT22;24320;56.980;24.336;2023-05-01T00:09:43;-0.20;99.90
28654;DHT22;24320;56.980;24.336;2023-05-01T00:12:10;-0.20;99.90
28654;DHT22;24320;56.980;24.336;2023-05-01T00:14:37;-0.20;99.90
28654;DHT22;24320;56.980;24.336;2023-05-01T00:17:04;-0.30;99.90
28654;DHT22;24320;56.980;24.336;2023-05-01T00:19:31;-0.30;99.90
28654;DHT22;24320;56.980;24.336;2023-05-01T00:21:58;-0.30;99.90
28654;DHT22;24320;56.980;24.336;2023-05-01T00:24:25;-0.40;99.90
28654;DHT22;24320;56.980;24.336;2023-05-01T00:26:53;-0.40;99.90
28654;DHT22;24320;56.980;24.336;2023-05-01T00:29:20;-0.40;99.90
28654;DHT22;24320;56.980;24.336;2023-05-01T00:31:47;-0.50;99.90
28654;DHT22;24320;56.980;24.336;2023-05-01T00:34:14;-0.50;99.90
28654;DHT22;24320;56.980;24.336;2023-05-01T00:36:41;-0.50;99.90
28654;DHT22;24320;56.980;24.336;2023-05-01T00:39:08;-0.50;99.90
28654;DHT22;24320;56.980;24.336;2023-05-01T00:41:36;-0.60;99.90
28654;DHT22;24320;56.980;24.336;2023-05-01T00:44:03;-0.60;99.90
28654;DHT22;24320;56.980;24.336;2023-05-01T00:46:31;-0.60;99.90
28654;DHT22;24320;56.980;24.336;2023-05-01T00:49:00;-0.60;99.90
28654;DHT22;24320;56.980;24.336;2023-05-01T00:51:28;-0.60;99.90
28654;DHT22;24320;56.980;24.336;2023-05-01T00:53:56;-0.70;99.90
28654;DHT22;24320;56.980;24.336;2023-05-01T00:56:24;-0.70;99.90
28654;DHT22;24320;56.980;24.336;2023-05-01T00:58:52;-0.70;99.90
28654;DHT22;24320;56.980;24.336;2023-05-01T01:01:20;-0.70;99.90
28654;DHT22;24320;56.980;24.336;2023-05-01T01:03:48;-0.70;99.90
28654;DHT22;24320;56.980;24.336;2023-05-01T01:06:55;-0.70;99.90
28654;DHT22;24320;56.980;24.336;2023-05-01T01:13:11;-0.80;99.90
28654;DHT22;24320;56.980;24.336;2023-05-01T01:35:09;-1.00;99.90
28654;DHT22;24320;56.980;24.336;2023-05-01T01:37:47;-1.00;99.90
28654;DHT22;24320;56.980;24.336;2023-05-01T01:40:18;-1.00;99.90
28654;DHT22;24320;56.980;24.336;2023-05-01T01:43:01;-1.00;99.90
28654;DHT22;24320;56.980;24.336;2023-05-01T01:45:36;-1.00;99.90
28654;DHT22;24320;56.980;24.336;2023-05-01T01:48:14;-1.00;99.90
28654;DHT22;24320;56.980;24.336;2023-05-01T01:50:44;-1.00;99.90
28654;DHT22;24320;56.980;24.336;2023-05-01T01:53:16;-1.00;99.90
28654;DHT22;24320;56.980;24.336;2023-05-01T01:55:44;-1.00;99.90
28654;DHT22;24320;56.980;24.336;2023-05-01T01:58:14;-1.00;99.90
28654;DHT22;24320;56.980;24.336;2023-05-01T02:00:44;-1.10;99.90
28654;DHT22;24320;56.980;24.336;2023-05-01T02:03:12;-1.10;99.90
28654;DHT22;24320;56.980;24.336;2023-05-01T02:05:41;-1.10;99.90
28654;DHT22;24320;56.980;24.336;2023-05-01T02:08:09;-1.10;99.90
28654;DHT22;24320;56.980;24.336;2023-05-01T02:10:37;-1.10;99.90
28654;DHT22;24320;56.980;24.336;2023-05-01T02:13:06;-1.10;99.90
28654;DHT22;24320;56.980;24.336;2023-05-01T02:15:33;-1.10;99.90
28654;DHT22;24320;56.980;24.336;2023-05-01T02:18:04;-1.10;99.90
28654;DHT22;24320;56.980;24.336;2023-05-01T02:20:32;-1.10;99.90
28654;DHT22;24320;56.980;24.336;2023-05-01T02:22:59;-1.10;99.90
28654;DHT22;24320;56.980;24.336;2023-05-01T02:25:29;-1.10;99.90
28654;DHT22;24320;56.980;24.336;2023-05-01T02:28:02;-1.10;99.90
28654;DHT22;24320;56.980;24.336;2023-05-01T02:30:32;-1.10;99.90
28654;DHT22;24320;56.980;24.336;2023-05-01T02:32:59;-1.10;99.90
28654;DHT22;24320;56.980;24.336;2023-05-01T02:35:26;-1.10;99.90
28654;DHT22;24320;56.980;24.336;2023-05-01T02:37:53;-1.10;99.90
28654;DHT22;24320;56.980;24.336;2023-05-01T02:40:20;-1.10;99.90
28654;DHT22;24320;56.980;24.336;2023-05-01T02:42:48;-1.10;99.90
28654;DHT22;24320;56.980;24.336;2023-05-01T02:45:22;-1.10;99.90
28654;DHT22;24320;56.980;24.336;2023-05-01T02:47:51;-1.10;99.90
28654;DHT22;24320;56.980;24.336;2023-05-01T02:50:20;-1.20;99.90
28654;DHT22;24320;56.980;24.336;2023-05-01T02:52:47;-1.10;99.90
28654;DHT22;24320;56.980;24.336;2023-05-01T02:55:16;-1.10;99.90
28654;DHT22;24320;56.980;24.336;2023-05-01T02:57:43;-1.10;99.90
28654;DHT22;24320;56.980;24.336;2023-05-01T03:00:10;-1.10;99.90
28654;DHT22;24320;56.980;24.336;2023-05-01T03:02:40;-1.10;99.90
28654;DHT22;24320;56.980;24.336;2023-05-01T03:05:07;-1.00;99.90
28654;DHT22;24320;56.980;24.336;2023-05-01T03:07:34;-1.00;99.90
28654;DHT22;24320;56.980;24.336;2023-05-01T03:10:02;-1.00;99.90
28654;DHT22;24320;56.980;24.336;2023-05-01T03:12:30;-1.00;99.90
28654;DHT22;24320;56.980;24.336;2023-05-01T03:14:57;-0.90;99.90
28654;DHT22;24320;56.980;24.336;2023-05-01T03:17:24;-0.70;99.90
28654;DHT22;24320;56.980;24.336;2023-05-01T03:19:51;-0.40;99.90
28654;DHT22;24320;56.980;24.336;2023-05-01T03:22:18;0.30;99.90
28654;DHT22;24320;56.980;24.336;2023-05-01T03:24:45;1.20;99.90
28654;DHT22;24320;56.980;24.336;2023-05-01T03:29:44;3.10;99.90
28654;DHT22;24320;56.980;24.336;2023-05-01T03:32:11;3.90;99.90
28654;DHT22;24320;56.980;24.336;2023-05-01T03:34:38;4.70;99.90
28654;DHT22;24320;56.980;24.336;2023-05-01T03:37:05;5.30;99.90
28654;DHT22;24320;56.980;24.336;2023-05-01T03:39:32;5.90;99.90
28654;DHT22;24320;56.980;24.336;2023-05-01T03:41:59;6.40;99.90
28654;DHT22;24320;56.980;24.336;2023-05-01T03:44:25;6.90;99.90
28654;DHT22;24320;56.980;24.336;2023-05-01T03:46:53;7.30;99.90
28654;DHT22;24320;56.980;24.336;2023-05-01T03:49:20;7.60;99.90
28654;DHT22;24320;56.980;24.336;2023-05-01T03:51:47;7.80;99.90
28654;DHT22;24320;56.980;24.336;2023-05-01T03:54:14;8.10;99.90
28654;DHT22;24320;56.980;24.336;2023-05-01T03:56:42;8.30;99.90
28654;DHT22;24320;56.980;24.336;2023-05-01T03:59:09;8.60;99.90
28654;DHT22;24320;56.980;24.336;2023-05-01T04:01:36;8.90;99.90
28654;DHT22;24320;56.980;24.336;2023-05-01T04:04:03;9.10;99.90
28654;DHT22;24320;56.980;24.336;2023-05-01T04:06:30;9.30;99.90
28654;DHT22;24320;56.980;24.336;2023-05-01T04:08:58;9.40;99.90
28654;DHT22;24320;56.980;24.336;2023-05-01T04:11:25;9.60;99.90
28654;DHT22;24320;56.980;24.336;2023-05-01T04:13:52;9.80;99.90
28654;DHT22;24320;56.980;24.336;2023-05-01T04:16:20;10.00;99.90
28654;DHT22;24320;56.980;24.336;2023-05-01T04:18:47;10.20;99.90
28654;DHT22;24320;56.980;24.336;2023-05-01T04:21:14;10.40;99.90
28654;DHT22;24320;56.980;24.336;2023-05-01T04:23:43;10.60;99.90
28654;DHT22;24320;56.980;24.336;2023-05-01T04:26:10;10.80;99.90
28654;DHT22;24320;56.980;24.336;2023-05-01T04:28:37;10.90;99.80
28654;DHT22;24320;56.980;24.336;2023-05-01T04:31:04;10.80;98.30
28654;DHT22;24320;56.980;24.336;2023-05-01T04:33:31;11.00;99.80
28654;DHT22;24320;56.980;24.336;2023-05-01T04:35:59;11.20;98.40
28654;DHT22;24320;56.980;24.336;2023-05-01T04:38:26;11.40;99.10
28654;DHT22;24320;56.980;24.336;2023-05-01T04:40:55;11.80;97.50
28654;DHT22;24320;56.980;24.336;2023-05-01T04:43:22;12.00;96.10
28654;DHT22;24320;56.980;24.336;2023-05-01T04:45:49;12.30;94.30
28654;DHT22;24320;56.980;24.336;2023-05-01T04:48:16;12.50;93.10
28654;DHT22;24320;56.980;24.336;2023-05-01T04:50:43;12.60;91.80
28654;DHT22;24320;56.980;24.336;2023-05-01T04:53:10;12.70;91.60
28654;DHT22;24320;56.980;24.336;2023-05-01T04:55:37;12.70;89.80
28654;DHT22;24320;56.980;24.336;2023-05-01T04:58:04;12.80;90.00
28654;DHT22;24320;56.980;24.336;2023-05-01T05:00:31;13.10;87.80
28654;DHT22;24320;56.980;24.336;2023-05-01T05:02:58;13.30;90.10
28654;DHT22;24320;56.980;24.336;2023-05-01T05:05:25;13.60;88.90
28654;DHT22;24320;56.980;24.336;2023-05-01T05:07:53;13.90;83.20
28654;DHT22;24320;56.980;24.336;2023-05-01T05:10:20;14.00;83.40
28654;DHT22;24320;56.980;24.336;2023-05-01T05:12:47;14.30;80.00
28654;DHT22;24320;56.980;24.336;2023-05-01T05:15:14;14.40;79.40
28654;DHT22;24320;56.980;24.336;2023-05-01T05:17:42;14.70;79.00
28654;DHT22;24320;56.980;24.336;2023-05-01T05:20:09;14.90;78.60
28654;DHT22;24320;56.980;24.336;2023-05-01T05:22:36;15.10;76.50
28654;DHT22;24320;56.980;24.336;2023-05-01T05:25:04;15.30;75.80
28654;DHT22;24320;56.980;24.336;2023-05-01T05:27:32;15.70;72.10
28654;DHT22;24320;56.980;24.336;2023-05-01T05:30:04;15.90;70.80
28654;DHT22;24320;56.980;24.336;2023-05-01T05:32:31;16.10;74.20
28654;DHT22;24320;56.980;24.336;2023-05-01T05:34:59;16.20;68.30
28654;DHT22;24320;56.980;24.336;2023-05-01T05:37:26;16.40;65.80
28654;DHT22;24320;56.980;24.336;2023-05-01T05:39:53;16.30;67.30
28654;DHT22;24320;56.980;24.336;2023-05-01T05:42:21;16.30;67.80
28654;DHT22;24320;56.980;24.336;2023-05-01T05:44:51;16.40;66.50
28654;DHT22;24320;56.980;24.336;2023-05-01T05:47:18;16.60;67.20
28654;DHT22;24320;56.980;24.336;2023-05-01T05:49:45;16.80;64.40
28654;DHT22;24320;56.980;24.336;2023-05-01T05:52:12;16.70;63.00
28654;DHT22;24320;56.980;24.336;2023-05-01T05:54:40;16.60;59.10
28654;DHT22;24320;56.980;24.336;2023-05-01T05:57:07;16.30;62.00
28654;DHT22;24320;56.980;24.336;2023-05-01T05:59:34;16.50;63.00
28654;DHT22;24320;56.980;24.336;2023-05-01T06:02:02;16.60;60.80
28654;DHT22;24320;56.980;24.336;2023-05-01T06:04:29;16.80;61.60
28654;DHT22;24320;56.980;24.336;2023-05-01T06:06:56;16.80;59.20
28654;DHT22;24320;56.980;24.336;2023-05-01T06:09:24;16.90;62.90
28654;DHT22;24320;56.980;24.336;2023-05-01T06:11:51;16.80;59.90
28654;DHT22;24320;56.980;24.336;2023-05-01T06:14:18;16.80;60.40
28654;DHT22;24320;56.980;24.336;2023-05-01T06:16:45;16.70;58.30
28654;DHT22;24320;56.980;24.336;2023-05-01T06:19:12;16.50;60.20
28654;DHT22;24320;56.980;24.336;2023-05-01T06:21:39;16.50;59.90
28654;DHT22;24320;56.980;24.336;2023-05-01T06:24:06;16.40;58.60
28654;DHT22;24320;56.980;24.336;2023-05-01T06:26:34;16.30;57.30
28654;DHT22;24320;56.980;24.336;2023-05-01T06:29:01;16.00;58.80
28654;DHT22;24320;56.980;24.336;2023-05-01T06:31:28;16.00;58.70
28654;DHT22;24320;56.980;24.336;2023-05-01T06:33:55;16.10;62.00
28654;DHT22;24320;56.980;24.336;2023-05-01T06:36:22;16.20;60.60
28654;DHT22;24320;56.980;24.336;2023-05-01T06:38:49;16.30;59.70
28654;DHT22;24320;56.980;24.336;2023-05-01T06:41:16;16.60;59.80
28654;DHT22;24320;56.980;24.336;2023-05-01T06:43:43;16.70;58.00
28654;DHT22;24320;56.980;24.336;2023-05-01T06:46:10;16.80;58.20
28654;DHT22;24320;56.980;24.336;2023-05-01T06:48:38;16.90;57.80
28654;DHT22;24320;56.980;24.336;2023-05-01T06:51:05;16.70;57.20
28654;DHT22;24320;56.980;24.336;2023-05-01T06:53:32;16.80;58.60
28654;DHT22;24320;56.980;24.336;2023-05-01T06:55:59;17.00;57.40
28654;DHT22;24320;56.980;24.336;2023-05-01T06:58:26;17.20;55.60
28654;DHT22;24320;56.980;24.336;2023-05-01T07:00:53;17.20;54.90
28654;DHT22;24320;56.980;24.336;2023-05-01T07:05:55;17.40;53.10
28654;DHT22;24320;56.980;24.336;2023-05-01T07:08:22;17.40;54.80
28654;DHT22;24320;56.980;24.336;2023-05-01T07:10:50;17.30;54.90
28654;DHT22;24320;56.980;24.336;2023-05-01T07:13:17;17.40;53.80
28654;DHT22;24320;56.980;24.336;2023-05-01T07:15:45;17.50;50.20
28654;DHT22;24320;56.980;24.336;2023-05-01T07:18:12;17.30;54.90
28654;DHT22;24320;56.980;24.336;2023-05-01T07:20:41;17.30;54.10
28654;DHT22;24320;56.980;24.336;2023-05-01T07:23:08;17.40;49.60
28654;DHT22;24320;56.980;24.336;2023-05-01T07:25:38;17.20;47.60
28654;DHT22;24320;56.980;24.336;2023-05-01T07:28:08;16.90;50.70
28654;DHT22;24320;56.980;24.336;2023-05-01T07:30:35;16.90;52.70
28654;DHT22;24320;56.980;24.336;2023-05-01T07:33:03;17.10;49.80
28654;DHT22;24320;56.980;24.336;2023-05-01T07:35:31;17.10;48.20
28654;DHT22;24320;56.980;24.336;2023-05-01T07:37:58;17.10;51.70
28654;DHT22;24320;56.980;24.336;2023-05-01T07:40:25;16.80;50.10
28654;DHT22;24320;56.980;24.336;2023-05-01T07:42:52;16.60;48.80
28654;DHT22;24320;56.980;24.336;2023-05-01T07:45:20;16.50;50.90
28654;DHT22;24320;56.980;24.336;2023-05-01T07:47:47;16.40;52.40
28654;DHT22;24320;56.980;24.336;2023-05-01T07:50:15;16.60;51.70
28654;DHT22;24320;56.980;24.336;2023-05-01T07:52:42;16.60;52.90
28654;DHT22;24320;56.980;24.336;2023-05-01T07:55:10;16.70;52.70
28654;DHT22;24320;56.980;24.336;2023-05-01T07:57:37;16.80;53.10
28654;DHT22;24320;56.980;24.336;2023-05-01T08:00:05;16.90;46.00
28654;DHT22;24320;56.980;24.336;2023-05-01T08:02:32;16.70;48.50
28654;DHT22;24320;56.980;24.336;2023-05-01T08:04:59;16.60;48.20
28654;DHT22;24320;56.980;24.336;2023-05-01T08:07:28;16.40;50.10
28654;DHT22;24320;56.980;24.336;2023-05-01T08:09:55;16.30;48.10
28654;DHT22;24320;56.980;24.336;2023-05-01T08:12:26;16.00;51.50
28654;DHT22;24320;56.980;24.336;2023-05-01T08:14:54;15.70;49.80
28654;DHT22;24320;56.980;24.336;2023-05-01T08:17:21;15.50;53.40
28654;DHT22;24320;56.980;24.336;2023-05-01T08:19:48;15.40;48.90
28654;DHT22;24320;56.980;24.336;2023-05-01T08:22:15;15.20;51.30
28654;DHT22;24320;56.980;24.336;2023-05-01T08:24:42;15.10;52.70
28654;DHT22;24320;56.980;24.336;2023-05-01T08:27:09;15.00;52.40
28654;DHT22;24320;56.980;24.336;2023-05-01T08:29:36;15.00;54.10
28654;DHT22;24320;56.980;24.336;2023-05-01T08:32:03;15.10;53.00
28654;DHT22;24320;56.980;24.336;2023-05-01T08:34:31;15.20;48.00
28654;DHT22;24320;56.980;24.336;2023-05-01T08:36:58;15.10;51.10
28654;DHT22;24320;56.980;24.336;2023-05-01T08:39:25;14.90;49.20
28654;DHT22;24320;56.980;24.336;2023-05-01T08:41:52;14.90;53.10
28654;DHT22;24320;56.980;24.336;2023-05-01T08:44:19;15.00;49.90
28654;DHT22;24320;56.980;24.336;2023-05-01T08:46:57;14.90;49.60
28654;DHT22;24320;56.980;24.336;2023-05-01T08:49:27;14.80;53.00
28654;DHT22;24320;56.980;24.336;2023-05-01T08:51:58;14.90;50.90
28654;DHT22;24320;56.980;24.336;2023-05-01T08:54:29;14.90;51.20
28654;DHT22;24320;56.980;24.336;2023-05-01T08:57:00;15.00;52.70
28654;DHT22;24320;56.980;24.336;2023-05-01T08:59:34;15.00;51.00
28654;DHT22;24320;56.980;24.336;2023-05-01T09:02:02;15.00;53.40
28654;DHT22;24320;56.980;24.336;2023-05-01T09:04:33;15.00;52.60
28654;DHT22;24320;56.980;24.336;2023-05-01T09:07:01;14.80;52.50
28654;DHT22;24320;56.980;24.336;2023-05-01T09:09:29;14.80;54.70
28654;DHT22;24320;56.980;24.336;2023-05-01T09:12:24;14.80;54.70
28654;DHT22;24320;56.980;24.336;2023-05-01T09:14:52;15.00;54.70
28654;DHT22;24320;56.980;24.336;2023-05-01T09:17:21;15.20;55.10
28654;DHT22;24320;56.980;24.336;2023-05-01T09:19:51;15.30;53.20
28654;DHT22;24320;56.980;24.336;2023-05-01T09:22:19;15.20;49.60
28654;DHT22;24320;56.980;24.336;2023-05-01T09:24:47;15.00;51.30
28654;DHT22;24320;56.980;24.336;2023-05-01T09:27:14;14.80;49.10
28654;DHT22;24320;56.980;24.336;2023-05-01T09:29:43;14.90;55.40
28654;DHT22;24320;56.980;24.336;2023-05-01T09:32:23;15.30;56.00
28654;DHT22;24320;56.980;24.336;2023-05-01T09:34:52;15.60;50.00
28654;DHT22;24320;56.980;24.336;2023-05-01T09:37:27;15.50;50.60
28654;DHT22;24320;56.980;24.336;2023-05-01T09:42:33;15.60;52.40
28654;DHT22;24320;56.980;24.336;2023-05-01T09:45:03;15.80;51.70
28654;DHT22;24320;56.980;24.336;2023-05-01T09:47:30;15.90;54.20
28654;DHT22;24320;56.980;24.336;2023-05-01T09:49:59;16.00;53.30
28654;DHT22;24320;56.980;24.336;2023-05-01T09:52:31;16.20;51.70
28654;DHT22;24320;56.980;24.336;2023-05-01T09:55:16;16.40;53.10
28654;DHT22;24320;56.980;24.336;2023-05-01T09:57:44;16.30;52.20
28654;DHT22;24320;56.980;24.336;2023-05-01T10:00:14;16.30;50.80
28654;DHT22;24320;56.980;24.336;2023-05-01T10:02:44;16.20;51.20
28654;DHT22;24320;56.980;24.336;2023-05-01T10:05:12;16.10;52.80
28654;DHT22;24320;56.980;24.336;2023-05-01T10:07:53;16.00;51.10
28654;DHT22;24320;56.980;24.336;2023-05-01T10:10:22;15.90;52.00
28654;DHT22;24320;56.980;24.336;2023-05-01T10:12:49;15.90;51.80
28654;DHT22;24320;56.980;24.336;2023-05-01T10:15:17;16.10;51.00
28654;DHT22;24320;56.980;24.336;2023-05-01T10:17:52;15.90;50.00
28654;DHT22;24320;56.980;24.336;2023-05-01T10:20:20;15.60;49.80
28654;DHT22;24320;56.980;24.336;2023-05-01T10:22:47;15.60;52.80
28654;DHT22;24320;56.980;24.336;2023-05-01T10:25:16;15.50;52.30
28654;DHT22;24320;56.980;24.336;2023-05-01T10:27:43;15.30;53.50
28654;DHT22;24320;56.980;24.336;2023-05-01T10:30:11;15.30;55.80
28654;DHT22;24320;56.980;24.336;2023-05-01T10:32:40;15.50;53.90
28654;DHT22;24320;56.980;24.336;2023-05-01T10:35:18;15.80;54.70
28654;DHT22;24320;56.980;24.336;2023-05-01T10:37:47;16.10;53.40
28654;DHT22;24320;56.980;24.336;2023-05-01T10:45:47;16.60;54.10
28654;DHT22;24320;56.980;24.336;2023-05-01T10:51:13;16.70;54.60
28654;DHT22;24320;56.980;24.336;2023-05-01T10:53:41;16.70;53.70
28654;DHT22;24320;56.980;24.336;2023-05-01T10:59:00;16.50;55.30
28654;DHT22;24320;56.980;24.336;2023-05-01T11:01:37;16.30;53.30
28654;DHT22;24320;56.980;24.336;2023-05-01T11:09:47;15.70;54.20
28654;DHT22;24320;56.980;24.336;2023-05-01T11:15:28;15.40;54.40
28654;DHT22;24320;56.980;24.336;2023-05-01T11:18:01;15.30;55.30
28654;DHT22;24320;56.980;24.336;2023-05-01T11:20:51;15.20;55.40
28654;DHT22;24320;56.980;24.336;2023-05-01T11:23:17;15.20;57.50
28654;DHT22;24320;56.980;24.336;2023-05-01T11:25:46;15.20;56.50
28654;DHT22;24320;56.980;24.336;2023-05-01T11:28:18;15.00;57.00
28654;DHT22;24320;56.980;24.336;2023-05-01T11:30:46;14.80;55.30
28654;DHT22;24320;56.980;24.336;2023-05-01T11:33:20;14.50;56.60
28654;DHT22;24320;56.980;24.336;2023-05-01T11:35:56;14.20;59.40
28654;DHT22;24320;56.980;24.336;2023-05-01T11:38:24;14.20;60.70
28654;DHT22;24320;56.980;24.336;2023-05-01T11:40:57;14.40;60.20
28654;DHT22;24320;56.980;24.336;2023-05-01T11:43:24;14.50;59.90
28654;DHT22;24320;56.980;24.336;2023-05-01T11:45:52;14.50;61.30
28654;DHT22;24320;56.980;24.336;2023-05-01T11:48:30;14.60;61.20
28654;DHT22;24320;56.980;24.336;2023-05-01T11:50:57;14.70;60.00
28654;DHT22;24320;56.980;24.336;2023-05-01T11:53:24;14.60;60.00
28654;DHT22;24320;56.980;24.336;2023-05-01T11:55:51;14.60;59.70
28654;DHT22;24320;56.980;24.336;2023-05-01T11:58:33;14.70;63.70
28654;DHT22;24320;56.980;24.336;2023-05-01T12:01:00;14.90;61.20
28654;DHT22;24320;56.980;24.336;2023-05-01T12:03:42;15.00;60.60
28654;DHT22;24320;56.980;24.336;2023-05-01T12:06:10;15.00;61.00
28654;DHT22;24320;56.980;24.336;2023-05-01T12:08:47;14.90;60.20
28654;DHT22;24320;56.980;24.336;2023-05-01T12:11:16;14.80;61.10
28654;DHT22;24320;56.980;24.336;2023-05-01T12:13:46;14.60;62.90
28654;DHT22;24320;56.980;24.336;2023-05-01T12:16:15;14.60;63.40
28654;DHT22;24320;56.980;24.336;2023-05-01T12:18:43;14.70;64.20
28654;DHT22;24320;56.980;24.336;2023-05-01T12:21:16;14.80;64.10
28654;DHT22;24320;56.980;24.336;2023-05-01T12:23:43;14.90;64.70
28654;DHT22;24320;56.980;24.336;2023-05-01T12:26:21;14.90;64.80
28654;DHT22;24320;56.980;24.336;2023-05-01T12:28:57;14.90;63.30
28654;DHT22;24320;56.980;24.336;2023-05-01T12:31:25;14.80;63.70
28654;DHT22;24320;56.980;24.336;2023-05-01T12:34:01;14.70;63.40
28654;DHT22;24320;56.980;24.336;2023-05-01T12:36:31;14.50;63.40
28654;DHT22;24320;56.980;24.336;2023-05-01T12:39:02;14.40;64.00
28654;DHT22;24320;56.980;24.336;2023-05-01T12:41:36;14.40;64.80
28654;DHT22;24320;56.980;24.336;2023-05-01T12:47:00;13.80;67.50
28654;DHT22;24320;56.980;24.336;2023-05-01T12:49:28;13.50;68.60
28654;DHT22;24320;56.980;24.336;2023-05-01T12:51:58;13.30;69.60
28654;DHT22;24320;56.980;24.336;2023-05-01T12:54:34;13.20;71.20
28654;DHT22;24320;56.980;24.336;2023-05-01T12:57:13;13.20;71.20
28654;DHT22;24320;56.980;24.336;2023-05-01T12:59:45;13.30;71.20
28654;DHT22;24320;56.980;24.336;2023-05-01T13:02:14;13.30;70.10
28654;DHT22;24320;56.980;24.336;2023-05-01T13:05:06;13.50;70.50
28654;DHT22;24320;56.980;24.336;2023-05-01T13:07:47;13.70;71.10
28654;DHT22;24320;56.980;24.336;2023-05-01T13:10:32;13.90;69.40
28654;DHT22;24320;56.980;24.336;2023-05-01T13:12:59;14.10;72.40
28654;DHT22;24320;56.980;24.336;2023-05-01T13:15:30;14.20;71.30
28654;DHT22;24320;56.980;24.336;2023-05-01T13:18:03;14.20;70.00
28654;DHT22;24320;56.980;24.336;2023-05-01T13:20:31;14.10;69.00
28654;DHT22;24320;56.980;24.336;2023-05-01T13:22:58;14.00;67.40
28654;DHT22;24320;56.980;24.336;2023-05-01T13:25:25;13.70;68.20
28654;DHT22;24320;56.980;24.336;2023-05-01T13:27:52;13.50;70.30
28654;DHT22;24320;56.980;24.336;2023-05-01T13:30:29;13.30;72.20
28654;DHT22;24320;56.980;24.336;2023-05-01T13:32:57;13.10;69.50
28654;DHT22;24320;56.980;24.336;2023-05-01T13:35:25;12.90;69.80
28654;DHT22;24320;56.980;24.336;2023-05-01T13:37:53;12.80;68.80
28654;DHT22;24320;56.980;24.336;2023-05-01T13:40:20;12.70;68.40
28654;DHT22;24320;56.980;24.336;2023-05-01T13:42:51;12.80;68.90
28654;DHT22;24320;56.980;24.336;2023-05-01T13:45:19;13.00;67.30
28654;DHT22;24320;56.980;24.336;2023-05-01T13:47:48;13.20;67.00
28654;DHT22;24320;56.980;24.336;2023-05-01T13:50:15;13.30;67.40
28654;DHT22;24320;56.980;24.336;2023-05-01T13:52:44;13.50;66.90
28654;DHT22;24320;56.980;24.336;2023-05-01T13:55:16;13.50;65.80
28654;DHT22;24320;56.980;24.336;2023-05-01T13:57:43;13.60;63.80
28654;DHT22;24320;56.980;24.336;2023-05-01T14:00:14;13.60;64.40
28654;DHT22;24320;56.980;24.336;2023-05-01T14:02:46;13.40;64.80
28654;DHT22;24320;56.980;24.336;2023-05-01T14:05:25;13.40;64.40
28654;DHT22;24320;56.980;24.336;2023-05-01T14:07:55;13.30;64.40
28654;DHT22;24320;56.980;24.336;2023-05-01T14:10:25;13.30;68.40
28654;DHT22;24320;56.980;24.336;2023-05-01T14:12:57;13.30;66.60
28654;DHT22;24320;56.980;24.336;2023-05-01T14:15:24;13.30;67.60
28654;DHT22;24320;56.980;24.336;2023-05-01T14:17:51;13.30;66.90
28654;DHT22;24320;56.980;24.336;2023-05-01T14:20:19;13.40;64.20
28654;DHT22;24320;56.980;24.336;2023-05-01T14:22:47;13.30;65.70
28654;DHT22;24320;56.980;24.336;2023-05-01T14:25:25;13.30;65.20
28654;DHT22;24320;56.980;24.336;2023-05-01T14:27:53;13.20;65.70
28654;DHT22;24320;56.980;24.336;2023-05-01T14:30:32;13.10;66.80
28654;DHT22;24320;56.980;24.336;2023-05-01T14:35:34;12.90;68.50
28654;DHT22;24320;56.980;24.336;2023-05-01T14:38:11;12.90;69.10
28654;DHT22;24320;56.980;24.336;2023-05-01T14:40:40;12.80;69.00
28654;DHT22;24320;56.980;24.336;2023-05-01T14:43:16;12.80;70.40
28654;DHT22;24320;56.980;24.336;2023-05-01T14:45:44;12.80;71.10
28654;DHT22;24320;56.980;24.336;2023-05-01T14:48:34;12.80;69.20
28654;DHT22;24320;56.980;24.336;2023-05-01T14:51:03;12.80;69.40
28654;DHT22;24320;56.980;24.336;2023-05-01T14:53:32;12.80;70.40
28654;DHT22;24320;56.980;24.336;2023-05-01T14:55:59;12.80;67.30
28654;DHT22;24320;56.980;24.336;2023-05-01T14:58:26;12.80;66.30
28654;DHT22;24320;56.980;24.336;2023-05-01T15:00:53;12.70;68.20
28654;DHT22;24320;56.980;24.336;2023-05-01T15:03:20;12.70;69.00
28654;DHT22;24320;56.980;24.336;2023-05-01T15:05:48;12.70;67.60
28654;DHT22;24320;56.980;24.336;2023-05-01T15:08:15;12.70;67.80
28654;DHT22;24320;56.980;24.336;2023-05-01T15:10:42;12.70;66.80
28654;DHT22;24320;56.980;24.336;2023-05-01T15:13:10;12.70;67.60
28654;DHT22;24320;56.980;24.336;2023-05-01T15:15:37;12.70;68.50
28654;DHT22;24320;56.980;24.336;2023-05-01T15:18:04;12.70;67.60
28654;DHT22;24320;56.980;24.336;2023-05-01T15:20:32;12.60;68.40
28654;DHT22;24320;56.980;24.336;2023-05-01T15:22:59;12.60;69.00
28654;DHT22;24320;56.980;24.336;2023-05-01T15:25:26;12.50;69.50
28654;DHT22;24320;56.980;24.336;2023-05-01T15:27:54;12.60;70.40
28654;DHT22;24320;56.980;24.336;2023-05-01T15:30:21;12.60;71.50
28654;DHT22;24320;56.980;24.336;2023-05-01T15:32:48;12.70;71.30
28654;DHT22;24320;56.980;24.336;2023-05-01T15:35:15;12.70;72.40
28654;DHT22;24320;56.980;24.336;2023-05-01T15:37:43;12.60;72.80
28654;DHT22;24320;56.980;24.336;2023-05-01T15:40:10;12.50;74.30
28654;DHT22;24320;56.980;24.336;2023-05-01T15:42:37;12.40;74.20
28654;DHT22;24320;56.980;24.336;2023-05-01T15:45:05;12.30;75.60
28654;DHT22;24320;56.980;24.336;2023-05-01T15:47:33;12.20;75.10
28654;DHT22;24320;56.980;24.336;2023-05-01T15:50:00;12.10;76.90
28654;DHT22;24320;56.980;24.336;2023-05-01T15:52:27;12.00;76.70
28654;DHT22;24320;56.980;24.336;2023-05-01T15:54:57;12.00;77.40
28654;DHT22;24320;56.980;24.336;2023-05-01T15:57:24;12.10;77.40
28654;DHT22;24320;56.980;24.336;2023-05-01T15:59:51;12.20;79.40
28654;DHT22;24320;56.980;24.336;2023-05-01T16:02:21;12.20;78.30
28654;DHT22;24320;56.980;24.336;2023-05-01T16:04:54;12.10;80.00
28654;DHT22;24320;56.980;24.336;2023-05-01T16:07:21;12.10;79.30
28654;DHT22;24320;56.980;24.336;2023-05-01T16:09:48;12.00;81.40
28654;DHT22;24320;56.980;24.336;2023-05-01T16:12:15;11.90;83.30
28654;DHT22;24320;56.980;24.336;2023-05-01T16:14:42;11.90;82.40
28654;DHT22;24320;56.980;24.336;2023-05-01T16:17:10;11.90;80.60
28654;DHT22;24320;56.980;24.336;2023-05-01T16:19:38;11.80;81.10
28654;DHT22;24320;56.980;24.336;2023-05-01T16:22:05;11.80;83.20
28654;DHT22;24320;56.980;24.336;2023-05-01T16:24:33;11.70;82.70
28654;DHT22;24320;56.980;24.336;2023-05-01T16:27:01;11.70;82.00